Time;durP1;ratioP1;P1;durP2;ratioP2;P2;SDS_P1;SDS_P2;PMS_P1;PMS_P2;Temp;Humidity;BMP_temperature;BMP_pressure;BME280_temperature;BME280_humidity;BME280_pressure;Samples;Min_cycle;Max_cycle;Signal;HPM_P1;HPM_P2
2021/12/24 00:01:37;;;;;;;4.53;2.00;;;;;;;-10.76;61.36;99307.47;6046259;23;20030;-79
2021/12/24 00:04:04;;;;;;;3.13;1.73;;;;;;;-10.96;60.71;99281.00;6068084;23;20112;-80
2021/12/24 00:06:30;;;;;;;4.63;1.83;;;;;;;-10.85;61.31;99304.34;6066955;23;20014;-80
2021/12/24 00:08:56;;;;;;;3.03;1.80;;;;;;;-10.69;60.74;99323.84;6070541;23;20053;-79
2021/12/24 00:11:22;;;;;;;3.93;2.10;;;;;;;-10.72;61.45;99328.69;6084694;23;20015;-80
2021/12/24 00:13:50;;;;;;;4.07;2.23;;;;;;;-10.84;60.74;99330.34;6046461;23;20142;-79
2021/12/24 00:37:24;;;;;;;5.93;2.20;;;;;;;-10.83;60.76;99319.53;6041434;23;20027;-78
2021/12/24 00:40:07;;;;;;;8.03;2.20;;;;;;;-10.77;61.23;99328.34;6041286;23;20019;-77
2021/12/24 00:42:33;;;;;;;6.83;2.50;;;;;;;-10.80;60.79;99323.13;6066075;23;20049;-79
2021/12/24 00:44:59;;;;;;;4.53;1.90;;;;;;;-11.21;61.22;99256.69;6016869;23;20019;-79
2021/12/24 00:47:25;;;;;;;4.83;1.90;;;;;;;-10.82;60.86;99313.75;6065664;23;20018;-79
2021/12/24 00:49:52;;;;;;;4.27;2.10;;;;;;;-10.59;61.66;99325.38;6066483;23;20014;-80
2021/12/24 00:52:31;;;;;;;5.90;2.40;;;;;;;-10.67;61.02;99279.56;6041206;23;20029;-79
2021/12/24 00:55:05;;;;;;;6.43;2.00;;;;;;;-10.37;60.86;99320.09;6017031;23;20018;-78
2021/12/24 00:57:35;;;;;;;4.70;2.33;;;;;;;-10.27;60.94;99310.63;6040787;23;20019;-79
2021/12/24 01:00:19;;;;;;;6.67;2.43;;;;;;;-10.21;61.19;99303.47;6041005;23;20026;-78
2021/12/24 01:02:46;;;;;;;6.87;2.13;;;;;;;-10.19;61.05;99305.34;6041612;23;20100;-79
2021/12/24 01:05:13;;;;;;;6.20;2.23;;;;;;;-10.14;61.15;99303.13;6066840;23;20038;-79
2021/12/24 01:07:44;;;;;;;5.83;2.10;;;;;;;-10.41;60.94;99244.34;6017883;23;20054;-79
2021/12/24 01:10:11;;;;;;;4.90;2.20;;;;;;;-10.12;61.36;99283.94;6067846;23;20085;-80
2021/12/24 01:12:38;;;;;;;5.30;1.93;;;;;;;-10.23;61.02;99260.59;6035584;23;20010;-80
2021/12/24 01:15:07;;;;;;;5.90;2.17;;;;;;;-10.58;60.83;99185.38;6037652;23;20054;-77
2021/12/24 01:17:57;;;;;;;3.03;1.60;;;;;;;-10.07;60.76;99290.16;6027326;23;20022;-79
2021/12/24 01:38:51;;;;;;;5.13;2.30;;;;;;;-10.25;60.40;99262.13;6041429;23;20015;-80
2021/12/24 01:42:40;;;;;;;4.97;2.20;;;;;;;-10.37;60.01;99251.28;6066713;23;20018;-79
2021/12/24 01:44:07;;;;;;;7.00;2.30;;;;;;;-10.44;60.46;99252.53;6041226;23;20023;-79
2021/12/24 01:46:33;;;;;;;5.40;2.40;;;;;;;-10.55;60.54;99230.84;6066358;23;20349;-78
2021/12/24 01:48:58;;;;;;;4.60;2.13;;;;;;;-10.62;60.96;99229.59;6041463;23;20029;-81
2021/12/24 01:51:25;;;;;;;7.60;3.07;;;;;;;-10.48;61.15;99254.00;6024988;23;20101;-81
2021/12/24 01:53:53;;;;;;;7.17;2.43;;;;;;;-11.38;60.53;99114.00;6017385;23;20022;-78
2021/12/24 01:56:19;;;;;;;5.30;2.30;;;;;;;-10.52;60.69;99273.81;6017539;23;20019;-79
2021/12/24 01:58:45;;;;;;;4.80;2.13;;;;;;;-10.51;61.08;99266.38;6040913;23;20461;-79
2021/12/24 02:01:11;;;;;;;5.93;2.70;;;;;;;-10.50;60.59;99263.06;6066666;23;20018;-79
2021/12/24 02:03:38;;;;;;;4.83;2.00;;;;;;;-10.49;60.84;99264.81;6065661;23;20023;-79
2021/12/24 02:06:04;;;;;;;7.20;2.37;;;;;;;-10.58;61.28;99248.25;6066525;23;20022;-79
2021/12/24 02:08:30;;;;;;;6.60;2.53;;;;;;;-10.49;60.92;99253.91;6017726;23;20414;-80
2021/12/24 02:10:56;;;;;;;5.23;2.60;;;;;;;-10.82;60.62;99206.50;6041943;23;20030;-77
2021/12/24 02:13:23;;;;;;;4.90;2.40;;;;;;;-10.48;60.85;99266.56;6019103;23;20014;-80
2021/12/24 02:29:32;;;;;;;7.17;2.50;;;;;;;-10.72;60.91;99202.06;6073573;23;20050;-79
2021/12/24 02:31:58;;;;;;;7.93;3.40;;;;;;;-10.59;60.61;99232.31;6082469;23;20012;-79
2021/12/24 02:34:24;;;;;;;5.63;2.60;;;;;;;-10.68;60.56;99216.59;6018866;23;20047;-80
2021/12/24 02:36:50;;;;;;;7.60;3.50;;;;;;;-10.71;61.17;99213.88;6043574;23;20027;-79
2021/12/24 02:39:16;;;;;;;7.60;3.70;;;;;;;-10.61;60.74;99234.69;6043493;23;20019;-79
2021/12/24 02:41:44;;;;;;;6.57;2.67;;;;;;;-10.62;60.78;99224.56;6044105;23;20480;-78
2021/12/24 02:44:10;;;;;;;7.90;2.90;;;;;;;-10.72;60.36;99192.91;6067668;23;20010;-79
2021/12/24 02:47:04;;;;;;;7.67;3.10;;;;;;;-10.84;61.23;99170.34;6041341;23;20029;-80
2021/12/24 02:55:15;;;;;;;5.90;2.30;;;;;;;-10.67;60.92;99199.06;6050282;23;20030;-78
2021/12/24 02:57:42;;;;;;;5.30;2.70;;;;;;;-10.63;61.17;99203.53;6060983;23;20038;-80
2021/12/24 03:00:15;;;;;;;5.87;2.73;;;;;;;-10.84;60.54;99156.88;6050255;23;20361;-79
2021/12/24 03:02:46;;;;;;;7.97;2.50;;;;;;;-10.61;60.65;99189.44;5997829;23;20106;-81
2021/12/24 03:05:45;;;;;;;8.23;3.10;;;;;;;-10.45;60.74;99192.94;6044034;23;20255;-79
2021/12/24 03:08:11;;;;;;;8.27;3.20;;;;;;;-10.36;60.16;99188.47;6019671;23;20023;-79
2021/12/24 03:10:37;;;;;;;6.00;2.83;;;;;;;-10.30;60.90;99185.47;6071924;23;20046;-80
2021/12/24 03:13:04;;;;;;;6.27;2.70;;;;;;;-10.36;60.74;99163.31;6071171;23;20033;-79
2021/12/24 03:15:30;;;;;;;8.60;2.90;;;;;;;-10.15;60.47;99186.44;6043025;23;20106;-78
2021/12/24 03:17:59;;;;;;;8.93;2.90;;;;;;;-10.33;60.24;99150.94;6018341;23;20457;-78
2021/12/24 03:20:28;;;;;;;5.87;2.73;;;;;;;-10.34;60.66;99143.25;6068243;23;20364;-79
2021/12/24 03:23:22;;;;;;;5.00;2.73;;;;;;;-10.23;60.27;99147.34;6067743;23;20120;-77
2021/12/24 03:25:48;;;;;;;6.77;3.10;;;;;;;-10.17;60.70;99167.00;6068440;23;20018;-79
2021/12/24 03:28:14;;;;;;;5.50;2.33;;;;;;;-10.03;60.80;99186.34;5995520;23;20022;-79
2021/12/24 03:30:39;;;;;;;5.83;3.27;;;;;;;-10.33;60.58;99140.84;6068186;23;20018;-79
2021/12/24 03:33:05;;;;;;;6.10;2.50;;;;;;;-10.20;60.32;99146.66;6042076;23;20404;-79
2021/12/24 03:35:31;;;;;;;7.13;2.80;;;;;;;-10.02;60.67;99177.16;6042677;23;20077;-79
2021/12/24 03:37:57;;;;;;;5.93;2.30;;;;;;;-10.24;60.51;99150.63;6042378;23;20102;-79
2021/12/24 03:40:23;;;;;;;7.47;3.10;;;;;;;-10.17;60.71;99156.91;6023013;23;20471;-79
2021/12/24 03:42:49;;;;;;;8.40;2.77;;;;;;;-10.19;60.60;99161.88;6059071;23;20018;-77
2021/12/24 03:45:30;;;;;;;6.27;2.73;;;;;;;-10.56;60.50;99109.22;6042148;23;20086;-80
2021/12/24 03:48:01;;;;;;;8.18;3.05;;;;;;;-10.25;60.09;99171.53;6042977;23;20262;-81
2021/12/24 03:50:42;;;;;;;6.40;3.13;;;;;;;-10.59;60.99;99124.16;6018418;23;20070;-80
2021/12/24 03:54:55;;;;;;;7.33;2.97;;;;;;;-10.32;60.85;99175.31;6042732;23;20142;-80
2021/12/24 03:55:54;;;;;;;6.63;2.90;;;;;;;-10.35;60.84;99166.69;6019526;23;20023;-79
2021/12/24 03:58:21;;;;;;;9.10;3.43;;;;;;;-10.70;60.73;99113.38;6041850;23;20022;-80
2021/12/24 04:01:12;;;;;;;6.72;2.95;;;;;;;-10.72;60.97;99101.47;6016079;23;20018;-80
2021/12/24 04:03:57;;;;;;;7.40;3.23;;;;;;;-10.38;60.82;99154.78;6047660;23;20014;-79
2021/12/24 04:06:41;;;;;;;9.67;3.30;;;;;;;-10.48;60.29;99130.72;6067553;23;20373;-79
2021/12/24 04:09:50;;;;;;;5.83;2.80;;;;;;;-10.36;60.99;99142.28;6037000;23;20058;-79
2021/12/24 04:12:40;;;;;;;8.63;3.20;;;;;;;-10.30;61.32;99143.56;6010066;23;20453;-79
2021/12/24 04:15:06;;;;;;;5.37;2.50;;;;;;;-10.20;60.80;99146.66;6079819;23;20086;-78
2021/12/24 04:17:36;;;;;;;4.90;2.47;;;;;;;-10.35;60.99;99112.22;6053323;23;20041;-79
2021/12/24 04:25:31;;;;;;;6.17;3.00;;;;;;;-10.06;61.09;99124.88;6067495;23;20082;-80
2021/12/24 04:27:59;;;;;;;6.57;3.33;;;;;;;-9.78;60.93;99140.03;6018516;23;20473;-79
2021/12/24 04:30:33;;;;;;;6.33;3.20;;;;;;;-9.70;60.58;99135.44;6066158;23;20025;-80
2021/12/24 04:33:09;;;;;;;7.17;2.70;;;;;;;-9.76;60.03;99114.94;6069688;23;20193;-80
2021/12/24 04:35:45;;;;;;;6.87;2.67;;;;;;;-9.78;60.11;99109.81;6048264;23;20029;-79
2021/12/24 04:51:29;;;;;;;6.47;2.83;;;;;;;-9.47;59.93;99124.25;6057831;23;20013;-80
2021/12/24 05:04:51;;;;;;;6.80;3.40;;;;;;;-9.74;60.03;99033.66;6067508;23;20014;-79
2021/12/24 05:09:49;;;;;;;6.67;2.70;;;;;;;-9.54;59.90;99056.63;6044315;23;20146;-80
2021/12/24 05:12:16;;;;;;;7.23;2.83;;;;;;;-9.36;60.03;99083.69;6019599;23;20026;-78
2021/12/24 05:14:42;;;;;;;5.40;2.40;;;;;;;-9.37;59.98;99082.84;6021153;23;20504;-80
2021/12/24 05:23:29;;;;;;;7.70;2.87;;;;;;;-9.78;59.98;99020.81;6067536;23;20097;-78
2021/12/24 05:25:56;;;;;;;5.17;2.33;;;;;;;-9.63;60.04;99043.50;6021192;23;20025;-78
2021/12/24 05:28:22;;;;;;;4.23;2.17;;;;;;;-9.36;60.06;99088.72;6024681;23;20074;-80
2021/12/24 05:30:50;;;;;;;4.57;2.53;;;;;;;-9.89;60.36;98992.47;6023749;23;20070;-79
2021/12/24 05:33:16;;;;;;;8.23;3.00;;;;;;;-9.46;59.85;99062.13;6042473;23;20023;-79
2021/12/24 05:35:45;;;;;;;6.47;2.80;;;;;;;-9.52;60.26;99054.22;6042604;23;20471;-78
2021/12/24 05:38:16;;;;;;;5.37;2.60;;;;;;;-9.48;59.54;99066.19;6043230;23;20034;-77
2021/12/24 05:40:43;;;;;;;7.03;2.83;;;;;;;-9.40;60.27;99100.28;6042167;23;20023;-78
2021/12/24 05:43:10;;;;;;;5.87;2.73;;;;;;;-9.57;60.18;99046.38;6019821;23;20022;-80
2021/12/24 05:45:37;;;;;;;7.07;2.97;;;;;;;-10.00;59.56;98982.59;6048112;23;20014;-80
2021/12/24 05:48:23;;;;;;;5.73;2.23;;;;;;;-9.34;60.28;99067.00;6024504;23;20433;-78
2021/12/24 05:50:52;;;;;;;6.60;2.90;;;;;;;-9.24;59.88;99072.69;6042402;23;20042;-79
2021/12/24 05:53:37;;;;;;;5.73;2.93;;;;;;;-9.14;60.19;99094.25;6023264;23;20021;-80
2021/12/24 05:56:10;;;;;;;7.87;2.90;;;;;;;-10.07;59.96;98924.25;6068215;23;20030;-76
2021/12/24 05:58:37;;;;;;;7.67;3.23;;;;;;;-9.69;60.08;98965.91;6066621;23;20043;-79
2021/12/24 06:01:04;;;;;;;5.93;3.00;;;;;;;-9.26;59.94;99045.66;6051568;23;20022;-78
2021/12/24 06:03:41;;;;;;;6.30;3.10;;;;;;;-9.12;59.93;99080.09;6034169;23;20027;-79
2021/12/24 06:06:06;;;;;;;6.33;3.40;;;;;;;-10.27;60.11;98885.34;6042939;23;20107;-77
2021/12/24 06:08:32;;;;;;;7.13;2.80;;;;;;;-9.10;59.98;99062.53;6042829;23;20061;-79
2021/12/24 06:10:58;;;;;;;6.83;3.00;;;;;;;-9.30;59.86;99037.06;6066564;23;20033;-81
2021/12/24 06:13:27;;;;;;;8.57;3.77;;;;;;;-9.64;60.42;98964.53;6019529;23;20033;-78
2021/12/24 06:15:54;;;;;;;7.63;3.97;;;;;;;-9.66;59.67;98953.50;6044636;23;20039;-79
2021/12/24 06:18:24;;;;;;;9.67;3.10;;;;;;;-9.65;59.30;98946.84;6048889;23;20033;-79
2021/12/24 06:20:51;;;;;;;7.00;2.87;;;;;;;-8.92;60.24;99082.88;6040248;23;20086;-78
2021/12/24 06:23:19;;;;;;;8.10;3.47;;;;;;;-9.63;59.83;98951.16;6057032;23;20488;-79
2021/12/24 06:25:45;;;;;;;9.43;3.43;;;;;;;-9.10;59.82;99035.66;6024195;23;20015;-80
2021/12/24 06:28:12;;;;;;;7.90;3.70;;;;;;;-8.90;59.98;99072.88;6044689;23;20033;-79
2021/12/24 06:30:39;;;;;;;7.37;3.17;;;;;;;-9.34;59.55;99007.41;6045257;23;20443;-79
2021/12/24 06:33:05;;;;;;;6.43;3.00;;;;;;;-9.10;59.83;99040.69;6023312;23;20026;-79
2021/12/24 06:35:31;;;;;;;5.23;2.83;;;;;;;-9.49;59.75;98981.34;6072037;23;20025;-80
2021/12/24 06:38:01;;;;;;;5.30;2.73;;;;;;;-9.64;60.08;98961.16;6084376;23;20186;-80
2021/12/24 06:40:27;;;;;;;5.73;2.87;;;;;;;-8.88;59.61;99091.50;6042839;23;20033;-79
2021/12/24 06:42:53;;;;;;;5.50;2.83;;;;;;;-9.87;59.93;98918.75;6057906;23;20018;-80
2021/12/24 06:45:23;;;;;;;4.90;2.50;;;;;;;-9.13;59.62;99030.44;6073100;23;20018;-80
2021/12/24 06:47:52;;;;;;;6.53;2.43;;;;;;;-9.17;59.73;99028.53;6053593;23;20022;-78
2021/12/24 06:50:20;;;;;;;7.47;3.00;;;;;;;-8.94;59.67;99069.34;6048695;23;20030;-78
2021/12/24 06:52:46;;;;;;;5.73;2.87;;;;;;;-8.70;59.60;99086.59;6072549;23;20030;-81
2021/12/24 06:55:16;;;;;;;6.13;3.10;;;;;;;-9.20;59.79;99007.31;6079959;23;20150;-83
2021/12/24 06:57:53;;;;;;;6.77;3.23;;;;;;;-9.51;59.43;98922.44;6054627;23;20051;-80
2021/12/24 07:00:25;;;;;;;5.63;2.67;;;;;;;-8.81;59.52;99031.41;6068263;23;20026;-80
2021/12/24 07:02:53;;;;;;;5.00;2.33;;;;;;;-8.86;58.99;99037.81;6073452;23;20254;-82
2021/12/24 07:05:21;;;;;;;6.60;2.87;;;;;;;-8.73;59.19;99057.03;6078056;23;20022;-80
2021/12/24 07:07:46;;;;;;;6.37;2.83;;;;;;;-8.77;59.42;99050.09;6050277;23;20020;-79
2021/12/24 07:10:16;;;;;;;4.43;2.90;;;;;;;-8.73;59.61;99062.09;6054657;23;20027;-78
2021/12/24 07:12:44;;;;;;;5.30;2.60;;;;;;;-8.46;59.71;99089.63;6041613;23;20070;-78
2021/12/24 07:15:10;;;;;;;5.93;2.67;;;;;;;-9.09;59.60;98988.63;6031252;23;20023;-80
2021/12/24 07:17:39;;;;;;;5.57;2.70;;;;;;;-9.15;59.57;98991.66;6080034;23;20581;-79
2021/12/24 07:20:08;;;;;;;5.70;2.70;;;;;;;-8.57;59.65;99094.09;6025300;23;20023;-80
2021/12/24 07:22:34;;;;;;;5.97;2.80;;;;;;;-8.67;59.76;99071.66;6044938;23;20026;-80
2021/12/24 07:25:00;;;;;;;5.50;3.33;;;;;;;-8.74;59.57;99050.25;6069311;23;20038;-80
2021/12/24 07:27:26;;;;;;;4.33;2.33;;;;;;;-8.50;59.53;99070.06;6069317;23;20353;-77
2021/12/24 07:29:52;;;;;;;6.40;2.83;;;;;;;-8.56;59.60;99055.47;6019948;23;20025;-80
2021/12/24 07:32:21;;;;;;;5.07;2.67;;;;;;;-8.67;59.42;99033.81;6069338;23;20610;-82
2021/12/24 07:34:47;;;;;;;6.40;2.33;;;;;;;-8.41;59.49;99097.44;6048962;23;20027;-81
2021/12/24 07:37:13;;;;;;;6.20;2.97;;;;;;;-8.51;59.64;99064.16;6046129;23;20025;-79
2021/12/24 07:39:38;;;;;;;5.20;2.40;;;;;;;-8.63;58.82;99053.38;6024064;23;20023;-81
2021/12/24 07:42:06;;;;;;;6.90;2.80;;;;;;;-8.65;59.50;99035.66;6050015;23;20022;-77
2021/12/24 07:44:35;;;;;;;5.53;2.60;;;;;;;-8.40;59.91;99095.00;6002034;23;20015;-76
2021/12/24 07:47:04;;;;;;;4.93;2.63;;;;;;;-8.85;59.42;99000.88;6071145;23;20362;-80
2021/12/24 07:49:30;;;;;;;6.47;2.63;;;;;;;-8.34;59.54;99072.59;6000704;23;20015;-79
2021/12/24 07:55:19;;;;;;;4.90;2.13;;;;;;;-9.55;59.41;98903.72;6073253;23;20019;-80
2021/12/24 07:57:54;;;;;;;6.57;2.70;;;;;;;-8.87;59.38;98997.41;6049379;23;20372;-78
2021/12/24 08:00:23;;;;;;;15.10;5.50;;;;;;;-9.26;59.18;98917.09;6053126;23;20019;-78
2021/12/24 08:03:01;;;;;;;6.20;2.60;;;;;;;-9.50;59.25;98877.16;6041953;23;20056;-79
2021/12/24 08:05:48;;;;;;;6.07;2.73;;;;;;;-8.25;59.08;99077.28;6037210;23;20021;-80
2021/12/24 08:08:15;;;;;;;6.32;2.22;;;;;;;-9.08;58.74;98935.75;6058419;23;20019;-78
2021/12/24 08:10:52;;;;;;;4.80;2.13;;;;;;;-8.38;59.23;99045.47;6083648;23;20002;-79
2021/12/24 08:13:19;;;;;;;6.47;2.90;;;;;;;-9.67;58.94;98823.31;6078687;23;20022;-78
2021/12/24 08:16:34;;;;;;;4.93;2.33;;;;;;;-9.64;58.95;98810.88;6059287;23;20097;-76
2021/12/24 08:19:34;;;;;;;5.93;2.67;;;;;;;-8.75;58.10;98977.03;6019062;23;20124;-78
2021/12/24 08:22:07;;;;;;;5.87;2.93;;;;;;;-7.99;58.87;99059.28;6014540;23;20022;-78
2021/12/24 08:24:36;;;;;;;4.17;2.40;;;;;;;-9.45;58.55;98832.03;6079530;23;20019;-80
2021/12/24 08:27:04;;;;;;;6.53;3.00;;;;;;;-8.02;58.50;99049.88;6050842;23;20046;-78
2021/12/24 08:29:31;;;;;;;3.10;2.23;;;;;;;-9.08;58.41;98877.78;6049488;23;20022;-79
2021/12/24 08:31:57;;;;;;;4.63;2.23;;;;;;;-8.00;58.61;99048.31;6075797;23;20069;-80
2021/12/24 08:34:23;;;;;;;4.93;2.40;;;;;;;-7.96;58.66;99055.25;6076707;23;20022;-77
2021/12/24 08:36:52;;;;;;;6.97;2.80;;;;;;;-7.87;58.93;99040.59;6027438;23;20121;-78
2021/12/24 08:39:19;;;;;;;6.80;3.03;;;;;;;-7.89;58.38;99036.25;6074241;23;20022;-80
2021/12/24 08:41:46;;;;;;;10.60;3.40;;;;;;;-8.17;58.33;98992.72;6051538;23;20019;-78
2021/12/24 08:44:15;;;;;;;6.73;3.40;;;;;;;-8.13;58.46;99003.00;6078973;23;20019;-76
2021/12/24 08:46:42;;;;;;;5.83;2.93;;;;;;;-8.05;58.34;98992.50;6051126;23;20018;-77
2021/12/24 08:49:08;;;;;;;6.20;2.80;;;;;;;-7.91;58.33;99002.44;6043837;23;20023;-78
2021/12/24 08:51:38;;;;;;;4.87;2.63;;;;;;;-7.76;58.29;99010.84;6069781;23;20073;-79
2021/12/24 08:54:05;;;;;;;6.72;3.38;;;;;;;-7.80;58.40;99005.53;6024294;23;20019;-78
2021/12/24 08:56:32;;;;;;;6.87;3.37;;;;;;;-7.71;58.76;99001.81;6072846;23;20025;-79
2021/12/24 08:58:58;;;;;;;6.07;3.00;;;;;;;-7.71;58.30;98990.84;6022280;23;20374;-77
2021/12/24 09:01:23;;;;;;;9.60;3.27;;;;;;;-7.61;58.11;99013.25;6019727;23;20110;-79
2021/12/24 09:03:49;;;;;;;6.17;3.03;;;;;;;-7.82;57.95;98961.63;6045367;23;20024;-79
2021/12/24 09:06:15;;;;;;;7.47;3.00;;;;;;;-7.60;57.98;99024.25;6045074;23;20470;-80
2021/12/24 09:08:44;;;;;;;8.67;3.27;;;;;;;-7.65;57.90;99001.28;6020475;23;20025;-81
2021/12/24 09:11:11;;;;;;;7.50;3.00;;;;;;;-7.70;57.88;98977.44;6045635;23;20663;-77
2021/12/24 09:13:37;;;;;;;7.63;3.10;;;;;;;-8.06;58.29;98920.06;6048001;23;20033;-81
2021/12/24 09:16:04;;;;;;;8.53;4.17;;;;;;;-7.54;58.04;99008.53;6050915;23;20023;-78
2021/12/24 09:18:30;;;;;;;5.83;2.80;;;;;;;-7.56;57.83;99006.78;6056781;23;20022;-79
2021/12/24 09:21:00;;;;;;;4.70;2.47;;;;;;;-7.52;57.83;98999.34;6077502;23;20090;-78
2021/12/24 09:23:26;;;;;;;8.47;3.57;;;;;;;-7.49;57.81;98999.53;6025920;23;20026;-79
2021/12/24 09:25:52;;;;;;;8.30;3.53;;;;;;;-7.57;57.79;98978.91;6074795;23;20014;-79
2021/12/24 09:28:18;;;;;;;6.10;3.30;;;;;;;-7.56;57.75;98978.97;6023978;23;20535;-78
2021/12/24 09:30:44;;;;;;;7.40;3.87;;;;;;;-7.46;58.17;98987.03;6050919;23;20026;-78
2021/12/24 09:33:10;;;;;;;9.47;3.60;;;;;;;-7.37;57.84;98984.94;6062078;23;20022;-75
2021/12/24 09:35:36;;;;;;;5.93;3.37;;;;;;;-7.54;57.79;98968.09;6028634;23;20030;-80
2021/12/24 09:38:03;;;;;;;5.07;2.85;;;;;;;-7.42;57.76;98986.41;6022013;23;20025;-79
2021/12/24 09:40:30;;;;;;;7.80;3.60;;;;;;;-7.51;58.00;98980.88;6049468;23;20026;-80
2021/12/24 09:42:57;;;;;;;7.68;3.97;;;;;;;-7.37;58.30;98981.56;6030123;23;20019;-78
2021/12/24 09:45:23;;;;;;;8.37;4.30;;;;;;;-7.25;58.34;98956.88;6065569;23;20050;-79
2021/12/24 09:47:49;;;;;;;8.57;4.15;;;;;;;-6.97;58.29;98969.22;6028851;23;20019;-77
2021/12/24 09:50:19;;;;;;;9.27;4.45;;;;;;;-7.05;57.86;98945.19;6050062;23;20023;-78
2021/12/24 09:52:45;;;;;;;8.13;3.97;;;;;;;-7.18;57.67;98926.03;6049960;23;20531;-79
2021/12/24 09:55:21;;;;;;;8.95;3.63;;;;;;;-7.03;57.59;98958.78;6073805;23;20465;-78
2021/12/24 09:57:48;;;;;;;8.77;3.50;;;;;;;-7.15;57.44;98943.88;6023253;23;20018;-80
2021/12/24 10:00:17;;;;;;;8.98;4.40;;;;;;;-6.88;57.71;98967.88;6050218;23;20046;-80
2021/12/24 10:02:47;;;;;;;8.55;3.42;;;;;;;-7.09;57.65;98924.75;6072928;23;20050;-77
2021/12/24 10:05:40;;;;;;;8.50;3.55;;;;;;;-6.97;57.93;98938.84;6051256;23;20122;-76
2021/12/24 10:08:08;;;;;;;;;;;;;;;-6.86;57.31;98972.25;6046200;23;20018;-78
2021/12/24 10:10:40;;;;;;;10.80;4.20;;;;;;;-7.49;57.25;98884.09;6005701;23;19917;-78
2021/12/24 10:13:33;;;;;;;9.75;4.55;;;;;;;-7.51;57.42;98875.59;6056196;23;20042;-81
2021/12/24 10:16:17;;;;;;;7.95;3.22;;;;;;;-7.39;57.22;98915.75;6041631;23;20461;-79
2021/12/24 10:18:46;;;;;;;9.73;4.35;;;;;;;-7.08;57.49;98960.22;6028300;23;20079;-84
2021/12/24 10:21:15;;;;;;;8.27;3.60;;;;;;;-6.96;57.11;98960.81;6073292;23;20074;-81
2021/12/24 10:23:45;;;;;;;10.98;4.20;;;;;;;-7.16;57.22;98936.22;6048613;23;20354;-78
2021/12/24 10:26:25;;;;;;;11.20;4.15;;;;;;;-7.00;57.35;98964.00;6048681;23;20340;-80
2021/12/24 10:29:03;;;;;;;8.23;3.70;;;;;;;-7.28;57.08;98922.19;6052736;23;20453;-79
2021/12/24 10:31:33;;;;;;;7.38;3.90;;;;;;;-7.08;57.22;98966.97;6052205;23;20118;-81
2021/12/24 10:34:08;;;;;;;8.20;4.20;;;;;;;-7.15;57.01;98958.19;6053291;23;20086;-80
2021/12/24 10:37:01;;;;;;;11.05;4.57;;;;;;;-7.32;57.65;98925.38;6025728;23;20368;-78
2021/12/24 10:39:36;;;;;;;11.30;4.40;;;;;;;-7.01;57.78;98952.13;6048552;23;20528;-80
2021/12/24 10:42:07;;;;;;;8.23;4.30;;;;;;;-7.02;57.39;98945.34;6036538;23;20027;-81
2021/12/24 10:44:38;;;;;;;8.48;4.20;;;;;;;-7.27;57.58;98929.00;6037205;23;20374;-80
2021/12/24 10:47:15;;;;;;;9.37;4.23;;;;;;;-7.26;57.49;98920.63;6072397;23;20033;-80
2021/12/24 10:52:31;;;;;;;10.68;4.32;;;;;;;-7.48;57.63;98863.09;6049016;23;20079;-79
2021/12/24 10:55:05;;;;;;;11.30;4.95;;;;;;;-6.73;57.15;98961.00;6073401;23;20559;-79
2021/12/24 10:57:34;;;;;;;8.27;3.70;;;;;;;-7.01;57.32;98934.44;6069787;23;20027;-79
2021/12/24 11:00:13;;;;;;;12.10;4.88;;;;;;;-7.30;57.33;98853.00;6021641;23;20093;-79
2021/12/24 11:02:39;;;;;;;13.88;5.18;;;;;;;-6.73;57.92;98943.28;6022739;23;20045;-77
2021/12/24 11:05:27;;;;;;;10.77;4.18;;;;;;;-6.62;57.36;98943.81;6022024;23;20026;-81
2021/12/24 11:07:53;;;;;;;9.60;4.68;;;;;;;-6.77;57.37;98923.72;6047454;23;20049;-82
2021/12/24 11:10:24;;;;;;;11.50;4.97;;;;;;;-7.48;57.09;98820.13;6045971;23;20018;-78
2021/12/24 11:12:57;;;;;;;11.88;4.40;;;;;;;-6.70;57.48;98932.47;6070374;23;20025;-79
2021/12/24 11:15:37;;;;;;;12.60;4.53;;;;;;;-6.85;57.18;98919.97;6043624;23;20097;-79
2021/12/24 11:18:06;;;;;;;11.02;4.45;;;;;;;-6.85;57.05;98933.50;6025653;23;20536;-81
2021/12/24 11:20:33;;;;;;;10.45;4.55;;;;;;;-6.96;57.02;98927.94;6072368;23;20021;-80
2021/12/24 11:23:11;;;;;;;13.02;5.15;;;;;;;-7.08;57.17;98907.09;6026573;23;20050;-80
2021/12/24 11:28:24;;;;;;;8.07;4.28;;;;;;;-7.21;57.06;98889.63;5986344;23;20044;-80
2021/12/24 11:30:56;;;;;;;6.20;3.67;;;;;;;-8.08;56.68;98751.59;5983519;23;20027;-79
2021/12/24 11:33:25;;;;;;;10.93;4.80;;;;;;;-7.44;57.22;98881.81;6018195;23;20043;-80
2021/12/24 11:35:53;;;;;;;12.13;4.90;;;;;;;-7.09;57.32;98927.28;5994069;23;20030;-80
2021/12/24 11:38:21;;;;;;;8.47;4.27;;;;;;;-7.06;57.34;98937.53;5990410;23;20020;-79
2021/12/24 11:40:49;;;;;;;11.15;4.85;;;;;;;-7.33;57.40;98888.25;5991381;23;20040;-78
2021/12/24 11:43:18;;;;;;;8.82;4.32;;;;;;;-7.29;57.11;98906.97;6014728;23;20043;-79
2021/12/24 11:45:44;;;;;;;9.15;4.13;;;;;;;-8.10;57.39;98773.38;5969708;23;20024;-80
2021/12/24 11:48:10;;;;;;;9.27;4.40;;;;;;;-7.20;57.10;98925.09;5994229;23;20067;-79
2021/12/24 11:50:37;;;;;;;11.15;4.55;;;;;;;-7.66;57.38;98842.88;6003953;23;20043;-81
2021/12/24 11:53:08;;;;;;;14.83;4.63;;;;;;;-7.48;57.27;98890.03;6033248;23;20015;-82
2021/12/24 11:55:41;;;;;;;10.10;4.10;;;;;;;-7.45;57.32;98906.22;6000109;23;20087;-80
2021/12/24 11:58:15;;;;;;;11.17;4.97;;;;;;;-7.78;57.23;98859.94;5993885;23;20031;-79
2021/12/24 12:00:44;;;;;;;9.88;4.50;;;;;;;-7.68;57.58;98863.78;6016321;23;20020;-81
2021/12/24 12:03:37;;;;;;;11.98;5.07;;;;;;;-7.46;57.53;98899.41;5994859;23;20020;-81
2021/12/24 12:06:29;;;;;;;9.93;4.33;;;;;;;-7.75;56.73;98891.31;6022822;23;20038;-81
2021/12/24 12:08:57;;;;;;;8.52;4.00;;;;;;;-7.61;57.53;98914.69;5998564;23;20044;-80
2021/12/24 12:11:28;;;;;;;7.50;3.17;;;;;;;-7.52;57.19;98941.22;6022018;23;20071;-81
2021/12/24 12:14:15;;;;;;;11.00;4.80;;;;;;;-7.61;57.67;98936.59;5996382;23;20019;-80
2021/12/24 12:17:23;;;;;;;10.97;5.57;;;;;;;-7.53;57.75;98944.53;5999518;23;20045;-80
2021/12/24 12:20:01;;;;;;;10.80;5.17;;;;;;;-8.98;57.89;98697.59;6003740;23;20030;-79
2021/12/24 12:25:33;;;;;;;10.03;4.40;;;;;;;-8.65;57.69;98744.63;6026028;23;20031;-81
2021/12/24 12:28:10;;;;;;;10.00;3.80;;;;;;;-8.08;57.18;98830.72;6026052;23;20055;-79
2021/12/24 12:30:42;;;;;;;11.67;4.43;;;;;;;-9.05;57.92;98677.91;6009670;23;20176;-78
2021/12/24 12:33:41;;;;;;;8.93;3.67;;;;;;;-8.40;57.13;98804.75;6056030;23;20078;-80
2021/12/24 12:36:07;;;;;;;11.23;4.37;;;;;;;-8.03;57.49;98868.81;6009551;23;20055;-81
2021/12/24 12:38:44;;;;;;;8.87;4.30;;;;;;;-7.71;57.94;98905.78;6029828;23;20124;-81
2021/12/24 12:41:33;;;;;;;9.50;4.87;;;;;;;-7.63;57.73;98948.28;6031105;23;20051;-80
2021/12/24 12:44:07;;;;;;;12.37;4.57;;;;;;;-8.72;57.58;98775.41;6030727;23;20026;-79
2021/12/24 12:46:40;;;;;;;13.47;4.83;;;;;;;-7.66;57.92;98940.53;6033252;23;20006;-77
2021/12/24 12:49:08;;;;;;;12.23;4.50;;;;;;;-7.78;58.01;98905.41;6032260;23;20053;-79
2021/12/24 12:51:55;;;;;;;9.67;4.50;;;;;;;-7.56;57.82;98938.53;6055675;23;20174;-78
2021/12/24 12:54:41;;;;;;;10.17;4.50;;;;;;;-7.61;57.74;98939.97;6032672;23;20141;-82
2021/12/24 12:57:21;;;;;;;12.23;4.20;;;;;;;-7.72;58.05;98933.53;6014418;23;20071;-82
2021/12/24 13:00:12;;;;;;;12.57;5.27;;;;;;;-7.80;57.99;98930.63;6055816;23;20019;-81
2021/12/24 13:03:07;;;;;;;11.33;4.90;;;;;;;-7.79;58.11;98929.84;6034560;23;20015;-80
2021/12/24 13:05:42;;;;;;;11.93;5.27;;;;;;;-7.80;58.48;98932.25;6061805;23;20034;-81
2021/12/24 13:08:18;;;;;;;10.63;4.53;;;;;;;-8.29;57.81;98868.41;6012938;23;20067;-79
2021/12/24 13:11:03;;;;;;;12.70;4.90;;;;;;;-8.24;58.20;98872.00;6065541;23;20027;-79
2021/12/24 13:13:42;;;;;;;10.13;4.67;;;;;;;-8.12;58.54;98891.09;6013782;23;20022;-79
2021/12/24 13:16:16;;;;;;;13.37;5.03;;;;;;;-7.88;58.61;98925.19;5983541;23;20473;-81
2021/12/24 13:18:47;;;;;;;9.77;4.73;;;;;;;-8.04;58.57;98890.69;6060875;23;20078;-80
2021/12/24 13:23:58;;;;;;;9.63;4.77;;;;;;;-9.23;58.17;98690.44;6024957;23;20022;-80
2021/12/24 13:26:24;;;;;;;13.67;5.57;;;;;;;-8.28;58.42;98834.78;6027058;23;20031;-82
2021/12/24 13:28:55;;;;;;;8.53;4.33;;;;;;;-7.85;58.37;98923.59;6026044;23;20203;-80
2021/12/24 13:31:21;;;;;;;12.50;5.53;;;;;;;-8.26;58.64;98845.81;6029017;23;20142;-80
2021/12/24 13:33:47;;;;;;;13.23;5.67;;;;;;;-8.21;58.42;98872.16;6028599;23;20023;-79
2021/12/24 13:36:13;;;;;;;10.00;4.40;;;;;;;-8.45;58.21;98825.47;6025651;23;20456;-81
2021/12/24 13:38:41;;;;;;;12.87;5.13;;;;;;;-8.50;59.12;98842.94;6029975;23;20070;-80
2021/12/24 13:41:06;;;;;;;12.13;5.80;;;;;;;-7.95;59.12;98918.06;6010154;23;20035;-78